Time;durP1;ratioP1;P1;durP2;ratioP2;P2;SDS_P1;SDS_P2;PMS_P1;PMS_P2;Temp;Humidity;BMP_temperature;BMP_pressure;BME280_temperature;BME280_humidity;BME280_pressure;Samples;Min_cycle;Max_cycle;Signal;HPM_P1;HPM_P2
2022/11/18 00:01:23;;;;;;;13.27;6.93;;;;;;;10.44;75.16;98357.06;4883840;29;20455;-90
2022/11/18 00:03:49;;;;;;;11.02;5.93;;;;;;;10.36;74.91;98346.94;4882627;29;20039;-90
2022/11/18 00:06:19;;;;;;;8.60;6.18;;;;;;;10.34;74.65;98351.81;4885217;29;20088;-89
2022/11/18 00:08:44;;;;;;;7.90;5.25;;;;;;;10.44;74.71;98357.84;4871589;29;20032;-90
2022/11/18 00:14:17;;;;;;;10.15;6.03;;;;;;;10.38;74.57;98345.56;4866837;29;20039;-90
2022/11/18 00:14:18;;;;;;;;;;;;;;;10.58;74.51;98378.63;4880449;29;20036;-90
2022/11/18 00:16:48;;;;;;;12.52;5.15;;;;;;;10.39;74.77;98362.50;4905322;29;19915;-89
2022/11/18 00:19:13;;;;;;;8.77;4.75;;;;;;;10.27;75.42;98358.34;4883649;29;20036;-90
2022/11/18 00:21:39;;;;;;;10.75;5.65;;;;;;;10.26;76.31;98364.00;4885217;29;20114;-90
2022/11/18 00:24:05;;;;;;;7.80;5.35;;;;;;;10.05;76.23;98350.84;4885849;29;20027;-90
2022/11/18 00:26:30;;;;;;;8.82;5.40;;;;;;;10.00;76.08;98352.78;4897953;29;20498;-90
2022/11/18 00:28:55;;;;;;;12.52;5.75;;;;;;;9.90;76.48;98361.81;4868558;29;20032;-91
2022/11/18 00:31:21;;;;;;;11.82;5.55;;;;;;;9.93;76.64;98376.56;4879096;29;20036;-90
2022/11/18 00:33:46;;;;;;;10.73;5.32;;;;;;;9.84;76.55;98362.97;4896896;29;20472;-91
2022/11/18 00:36:15;;;;;;;7.43;5.10;;;;;;;9.99;76.40;98353.88;4884697;29;20088;-90
2022/11/18 00:38:40;;;;;;;11.85;5.55;;;;;;;10.05;76.12;98361.59;4885391;29;20036;-90
2022/11/18 00:41:11;;;;;;;8.55;5.72;;;;;;;10.11;76.20;98365.03;4867489;29;20052;-90
2022/11/18 00:43:36;;;;;;;11.65;5.53;;;;;;;9.98;76.35;98363.03;4873160;29;20526;-90
2022/11/18 00:46:02;;;;;;;8.60;5.07;;;;;;;9.84;76.75;98371.03;4870200;29;20032;-90
2022/11/18 00:48:27;;;;;;;8.00;5.18;;;;;;;9.73;77.16;98362.25;4873190;29;20398;-90
2022/11/18 00:50:54;;;;;;;9.50;5.57;;;;;;;9.62;77.95;98352.72;4879356;29;20039;-90
2022/11/18 00:53:20;;;;;;;9.32;5.60;;;;;;;9.54;77.71;98353.38;4881791;29;20115;-90
2022/11/18 00:55:46;;;;;;;7.88;5.25;;;;;;;9.53;77.33;98357.94;4881403;29;20079;-90
2022/11/18 00:58:13;;;;;;;8.18;5.18;;;;;;;9.68;76.82;98356.97;4880874;29;20095;-90
2022/11/18 01:00:47;;;;;;;7.32;5.00;;;;;;;9.76;76.73;98359.00;4879764;29;20040;-90
2022/11/18 01:03:13;;;;;;;13.13;5.90;;;;;;;9.78;76.55;98356.84;4881615;29;20028;-90
2022/11/18 01:05:38;;;;;;;11.85;5.40;;;;;;;9.86;76.60;98374.22;4883976;29;20531;-90
2022/11/18 01:08:07;;;;;;;10.20;4.90;;;;;;;9.73;76.42;98348.81;4882539;29;20027;-90
2022/11/18 01:10:33;;;;;;;7.60;5.18;;;;;;;9.69;76.37;98340.56;4895671;29;20543;-90
2022/11/18 01:15:43;;;;;;;7.93;5.63;;;;;;;9.68;76.35;98340.84;4887850;29;20035;-90
2022/11/18 01:18:09;;;;;;;10.23;5.78;;;;;;;9.57;77.24;98340.16;4884125;29;20423;-89
2022/11/18 01:20:34;;;;;;;9.75;5.13;;;;;;;9.38;77.55;98340.13;4893213;29;20032;-90
2022/11/18 01:23:00;;;;;;;6.05;4.38;;;;;;;9.19;77.53;98336.53;4884588;29;20080;-90
2022/11/18 01:25:26;;;;;;;9.93;5.22;;;;;;;9.26;77.29;98353.94;4883539;29;20031;-90
2022/11/18 01:27:51;;;;;;;9.20;5.10;;;;;;;9.08;77.95;98343.91;4879947;29;20039;-90
2022/11/18 01:30:17;;;;;;;10.55;5.03;;;;;;;8.95;78.02;98326.59;4882310;29;20072;-91
2022/11/18 01:32:43;;;;;;;6.70;4.68;;;;;;;9.09;77.56;98332.91;4906099;29;20024;-90
2022/11/18 01:35:09;;;;;;;6.40;4.40;;;;;;;9.19;78.06;98349.97;4875261;29;20028;-90
2022/11/18 01:37:34;;;;;;;6.35;4.22;;;;;;;9.08;77.32;98317.06;4905051;29;20491;-90
2022/11/18 01:40:00;;;;;;;6.85;4.97;;;;;;;9.26;77.59;98337.03;4878062;29;20028;-90
2022/11/18 01:42:25;;;;;;;9.55;5.65;;;;;;;9.22;77.51;98330.63;4882846;29;20073;-90
2022/11/18 01:45:03;;;;;;;6.63;4.93;;;;;;;9.20;77.58;98330.09;4866751;29;20107;-89
2022/11/18 01:47:32;;;;;;;7.75;4.72;;;;;;;9.10;77.68;98334.47;4892208;29;20060;-88
2022/11/18 01:49:57;;;;;;;9.73;4.85;;;;;;;8.96;77.78;98322.81;4877632;29;20032;-90
2022/11/18 01:52:23;;;;;;;7.32;4.22;;;;;;;8.92;77.96;98331.72;4879071;29;20035;-91
2022/11/18 01:54:51;;;;;;;9.07;5.28;;;;;;;9.02;78.01;98321.66;4867568;29;20032;-92
2022/11/18 01:57:17;;;;;;;7.97;4.43;;;;;;;9.01;78.01;98335.41;4873258;29;20040;-88
2022/11/18 01:59:43;;;;;;;8.27;4.57;;;;;;;8.86;78.25;98329.09;4869283;29;20048;-92
2022/11/18 02:02:10;;;;;;;7.85;4.78;;;;;;;8.75;78.97;98326.78;4854203;29;20067;-91
2022/11/18 02:04:37;;;;;;;7.97;4.75;;;;;;;8.74;78.44;98325.19;4882954;29;20589;-89
2022/11/18 02:07:03;;;;;;;7.00;4.88;;;;;;;8.68;78.17;98311.81;4883843;29;20020;-89
2022/11/18 02:09:28;;;;;;;9.55;4.85;;;;;;;8.66;78.50;98323.91;4874675;29;20047;-91
2022/11/18 02:11:54;;;;;;;7.78;4.85;;;;;;;8.76;78.10;98320.31;4882686;29;20024;-92
2022/11/18 02:14:21;;;;;;;8.80;4.63;;;;;;;8.56;79.28;98311.38;4888691;29;20032;-91
2022/11/18 02:16:51;;;;;;;6.13;4.70;;;;;;;8.69;78.25;98310.72;4877788;29;20483;-91
2022/11/18 02:19:44;;;;;;;10.00;5.20;;;;;;;8.75;78.39;98324.09;4894443;29;20032;-91
2022/11/18 02:22:22;;;;;;;5.97;4.30;;;;;;;8.82;78.05;98322.69;4904615;29;20048;-91
2022/11/18 02:25:25;;;;;;;7.47;4.68;;;;;;;8.90;78.55;98330.13;4911945;29;20066;-90
2022/11/18 02:28:01;;;;;;;8.25;4.30;;;;;;;8.86;78.49;98320.22;4904944;29;20024;-91
2022/11/18 02:30:27;;;;;;;6.85;4.28;;;;;;;8.74;77.83;98306.41;4870017;29;20024;-91
2022/11/18 02:33:04;;;;;;;7.05;4.40;;;;;;;8.59;77.94;98286.69;4883656;29;20028;-91
2022/11/18 02:35:38;;;;;;;5.10;3.88;;;;;;;8.72;78.11;98298.63;4895535;29;20032;-91
2022/11/18 02:38:15;;;;;;;7.78;4.38;;;;;;;8.70;78.09;98320.38;4880443;29;20032;-91
2022/11/18 02:41:07;;;;;;;8.50;4.40;;;;;;;8.70;77.58;98309.63;4881560;29;20028;-91
2022/11/18 02:43:45;;;;;;;10.90;4.75;;;;;;;8.47;77.95;98303.13;4881465;29;20051;-91
2022/11/18 02:46:12;;;;;;;6.38;4.68;;;;;;;8.34;78.16;98308.28;4882388;29;20045;-91
2022/11/18 02:48:39;;;;;;;8.65;5.10;;;;;;;8.33;78.45;98322.78;4881813;29;20016;-91
2022/11/18 02:51:05;;;;;;;10.38;5.55;;;;;;;8.43;77.79;98322.75;4875051;29;20096;-91
2022/11/18 02:53:30;;;;;;;9.05;5.25;;;;;;;8.51;78.28;98316.78;4879865;29;20021;-91
2022/11/18 02:55:56;;;;;;;9.00;5.15;;;;;;;8.62;78.09;98314.81;4872601;29;20029;-91
2022/11/18 02:58:21;;;;;;;6.15;4.00;;;;;;;8.65;78.31;98314.25;4866944;29;20032;-91
2022/11/18 03:00:59;;;;;;;10.70;4.60;;;;;;;8.72;78.34;98320.09;4864396;29;20040;-91
2022/11/18 03:03:30;;;;;;;6.22;3.60;;;;;;;8.63;78.50;98311.84;4864629;29;20025;-91
2022/11/18 03:06:34;;;;;;;7.55;3.75;;;;;;;8.83;78.13;98337.69;4877020;29;20028;-91
2022/11/18 03:09:21;;;;;;;6.40;4.70;;;;;;;8.45;77.97;98318.69;4894492;29;20040;-91
2022/11/18 03:11:55;;;;;;;11.20;4.57;;;;;;;8.38;77.93;98336.16;4894871;29;20025;-91
2022/11/18 03:14:36;;;;;;;8.70;4.53;;;;;;;8.32;78.33;98348.78;4878579;29;20051;-90
2022/11/18 03:17:10;;;;;;;7.80;4.65;;;;;;;8.00;78.59;98317.09;4896114;29;20457;-90
2022/11/18 03:19:45;;;;;;;6.70;4.45;;;;;;;8.14;78.37;98336.06;4877541;29;20025;-91
2022/11/18 03:22:16;;;;;;;7.20;4.82;;;;;;;8.10;77.97;98323.19;4895278;29;20028;-92
2022/11/18 03:24:46;;;;;;;8.80;4.68;;;;;;;8.12;78.36;98317.56;4878550;29;20044;-90
2022/11/18 03:27:15;;;;;;;6.97;4.20;;;;;;;8.24;78.00;98323.38;4864454;29;20033;-92
2022/11/18 03:29:46;;;;;;;9.35;4.68;;;;;;;8.09;78.71;98320.78;4878101;29;20041;-89
2022/11/18 03:32:17;;;;;;;6.30;3.80;;;;;;;7.98;78.21;98313.91;4879368;29;20059;-90
2022/11/18 03:34:45;;;;;;;8.32;4.78;;;;;;;7.91;78.35;98324.94;4879130;29;20036;-92
2022/11/18 03:37:11;;;;;;;7.75;4.63;;;;;;;7.99;77.97;98328.91;4879360;29;20127;-90
2022/11/18 03:39:40;;;;;;;7.05;4.25;;;;;;;7.95;77.55;98306.41;4864133;29;20031;-89
2022/11/18 03:42:14;;;;;;;5.95;3.78;;;;;;;8.14;77.68;98320.78;4879332;29;20097;-88
2022/11/18 03:44:42;;;;;;;7.82;4.57;;;;;;;8.00;78.29;98311.75;4862090;29;20028;-92
2022/11/18 03:47:09;;;;;;;8.07;4.35;;;;;;;7.86;78.86;98315.06;4879350;29;20036;-90
2022/11/18 03:49:39;;;;;;;5.45;3.85;;;;;;;7.74;79.10;98311.91;4879500;29;20488;-90
2022/11/18 03:52:25;;;;;;;6.97;4.07;;;;;;;7.67;79.32;98298.00;4879661;29;20068;-90
2022/11/18 03:54:52;;;;;;;5.78;4.20;;;;;;;7.86;77.88;98312.38;4878558;29;20107;-90
2022/11/18 03:57:32;;;;;;;8.85;3.88;;;;;;;7.68;79.56;98315.69;4879183;29;20123;-89
2022/11/18 04:00:07;;;;;;;19.98;12.57;;;;;;;7.87;78.48;98323.88;4879590;29;20052;-90
2022/11/18 04:02:32;;;;;;;22.77;13.80;;;;;;;7.80;78.31;98307.28;4891754;29;20056;-90
2022/11/18 04:04:58;;;;;;;9.98;6.97;;;;;;;7.87;78.25;98313.16;4876022;29;20036;-90
2022/11/18 04:07:41;;;;;;;15.68;10.93;;;;;;;8.01;77.71;98326.75;4882512;29;20035;-91
2022/11/18 04:10:31;;;;;;;15.45;8.90;;;;;;;7.86;78.10;98304.34;4889671;29;20028;-92
2022/11/18 04:13:08;;;;;;;13.73;8.00;;;;;;;7.77;78.74;98321.25;4885008;29;20036;-89
2022/11/18 04:15:38;;;;;;;8.80;5.20;;;;;;;7.65;79.27;98314.34;4880153;29;20051;-90
2022/11/18 04:18:04;;;;;;;7.43;5.55;;;;;;;7.57;79.08;98308.75;4886220;29;20036;-90
2022/11/18 04:20:31;;;;;;;18.27;7.63;;;;;;;7.64;79.05;98303.91;4888020;29;20028;-89
2022/11/18 04:22:56;;;;;;;11.15;6.85;;;;;;;7.71;78.51;98317.00;4887244;29;20118;-89
2022/11/18 04:25:23;;;;;;;8.18;4.47;;;;;;;7.51;78.67;98325.91;4886595;29;20036;-89
2022/11/18 04:27:49;;;;;;;6.78;4.53;;;;;;;7.30;79.23;98315.28;4872243;29;20096;-89
2022/11/18 04:30:14;;;;;;;5.70;4.22;;;;;;;7.42;78.93;98329.16;4902731;29;20024;-91
2022/11/18 04:32:40;;;;;;;7.32;6.15;;;;;;;7.08;79.12;98300.38;4886342;29;20120;-91
2022/11/18 04:35:05;;;;;;;7.05;4.85;;;;;;;7.09;78.75;98311.84;4885100;29;20095;-89
2022/11/18 04:37:31;;;;;;;6.38;4.57;;;;;;;7.10;78.61;98300.09;4875038;29;20127;-89
2022/11/18 04:39:56;;;;;;;7.45;4.78;;;;;;;7.28;78.10;98306.72;4877510;29;20037;-89
2022/11/18 04:42:22;;;;;;;7.07;4.38;;;;;;;7.45;77.64;98344.69;4879789;29;20044;-92
2022/11/18 04:44:47;;;;;;;8.65;4.45;;;;;;;7.25;78.35;98328.69;4880134;29;20082;-89
2022/11/18 04:47:13;;;;;;;8.25;5.07;;;;;;;7.20;78.06;98312.63;4890155;29;20032;-89
2022/11/18 04:49:38;;;;;;;10.35;4.82;;;;;;;7.01;79.04;98307.06;4894232;29;20040;-89
2022/11/18 04:52:04;;;;;;;9.27;4.97;;;;;;;6.98;79.01;98318.31;4868878;29;20043;-88
2022/11/18 04:54:29;;;;;;;10.38;4.78;;;;;;;7.01;78.84;98323.91;4885773;29;20418;-90
2022/11/18 04:56:55;;;;;;;9.90;4.25;;;;;;;6.91;78.81;98325.81;4870625;29;20032;-92
2022/11/18 04:59:22;;;;;;;9.55;4.78;;;;;;;7.02;78.44;98328.22;4870198;29;20455;-89
2022/11/18 05:01:48;;;;;;;7.03;4.50;;;;;;;7.06;78.30;98321.25;4886569;29;20636;-88
2022/11/18 05:04:15;;;;;;;14.98;5.05;;;;;;;6.96;78.88;98329.28;4885973;29;20032;-89
2022/11/18 05:06:41;;;;;;;10.65;4.63;;;;;;;6.98;78.50;98340.53;4886438;29;20411;-89
2022/11/18 05:09:06;;;;;;;10.02;5.63;;;;;;;6.93;78.54;98324.50;4885984;29;20041;-89
2022/11/18 05:14:16;;;;;;;10.90;5.65;;;;;;;6.84;79.34;98315.38;4886700;29;20031;-88
2022/11/18 05:16:41;;;;;;;8.95;5.07;;;;;;;6.89;78.74;98334.13;4869789;29;20075;-91
2022/11/18 05:19:07;;;;;;;16.30;7.65;;;;;;;6.75;79.11;98325.84;4868543;29;20029;-88
2022/11/18 05:21:32;;;;;;;22.65;9.55;;;;;;;6.56;78.97;98324.78;4875113;29;20067;-89
2022/11/18 05:23:59;;;;;;;9.63;6.40;;;;;;;6.62;78.92;98340.56;4884093;29;20591;-91
2022/11/18 05:26:25;;;;;;;11.70;6.07;;;;;;;6.65;79.31;98344.56;4885799;29;20031;-88
2022/11/18 05:28:50;;;;;;;9.38;6.22;;;;;;;6.66;79.40;98348.84;4886043;29;20136;-89
2022/11/18 05:31:16;;;;;;;10.40;6.60;;;;;;;6.75;79.10;98333.06;4870516;29;20028;-90
2022/11/18 05:33:44;;;;;;;12.30;6.88;;;;;;;6.72;79.09;98341.63;4885674;29;20036;-89
2022/11/18 05:36:14;;;;;;;20.52;9.38;;;;;;;6.52;79.99;98323.72;4885290;29;20028;-89
2022/11/18 05:38:39;;;;;;;12.13;8.38;;;;;;;6.92;79.13;98357.66;4901091;29;20106;-91
2022/11/18 05:41:08;;;;;;;16.70;9.70;;;;;;;6.81;79.36;98343.50;4901090;29;20036;-89
2022/11/18 05:43:34;;;;;;;28.13;10.30;;;;;;;6.71;78.79;98321.31;4885437;29;20032;-90
2022/11/18 05:45:59;;;;;;;17.08;8.90;;;;;;;6.76;78.58;98330.09;4885283;29;20483;-90
2022/11/18 05:48:25;;;;;;;16.25;7.65;;;;;;;6.79;78.66;98336.81;4885755;29;20031;-89
2022/11/18 05:50:51;;;;;;;13.63;7.40;;;;;;;6.86;78.65;98350.72;4884852;29;20036;-88
2022/11/18 05:53:18;;;;;;;16.08;7.65;;;;;;;6.67;79.08;98331.72;4884778;29;20028;-91
2022/11/18 05:56:05;;;;;;;15.68;7.53;;;;;;;7.04;78.55;98362.75;4885611;29;20119;-92
2022/11/18 05:58:30;;;;;;;18.63;9.57;;;;;;;7.03;78.20;98345.84;4879339;29;20068;-92
2022/11/18 06:00:59;;;;;;;19.02;7.93;;;;;;;7.10;78.11;98342.91;4878224;29;20040;-90
2022/11/18 06:03:25;;;;;;;20.42;8.73;;;;;;;7.07;78.37;98346.13;4866528;29;20150;-87
2022/11/18 06:05:54;;;;;;;24.08;8.73;;;;;;;7.16;77.94;98343.69;4895806;29;20454;-91
2022/11/18 06:08:22;;;;;;;15.65;7.97;;;;;;;7.25;78.20;98345.56;4883755;29;20052;-89
2022/11/18 06:10:47;;;;;;;24.10;10.15;;;;;;;7.33;78.03;98343.41;4869634;29;20037;-91
2022/11/18 06:13:16;;;;;;;20.00;9.88;;;;;;;7.26;78.54;98352.53;4890686;29;20059;-87
2022/11/18 06:15:41;;;;;;;18.55;7.70;;;;;;;7.29;78.36;98340.47;4877177;29;20039;-93
2022/11/18 06:18:19;;;;;;;16.13;9.57;;;;;;;7.65;77.43;98362.56;4881694;29;20518;-92
2022/11/18 06:20:58;;;;;;;16.50;9.07;;;;;;;7.75;77.25;98351.00;4878633;29;20401;-96
2022/11/18 06:23:29;;;;;;;16.30;8.90;;;;;;;7.76;76.26;98327.69;4887892;29;20032;-92
2022/11/18 06:25:54;;;;;;;18.38;10.27;;;;;;;8.00;76.22;98325.16;4899169;29;20087;-92
2022/11/18 06:28:20;;;;;;;18.38;9.75;;;;;;;8.16;75.12;98336.59;4883807;29;20020;-93
2022/11/18 06:34:07;;;;;;;16.43;9.80;;;;;;;8.50;75.21;98333.94;5355152;23;20063;-91
2022/11/18 06:36:33;;;;;;;13.20;9.35;;;;;;;8.45;75.77;98344.72;4871931;29;20123;-90
2022/11/18 06:39:03;;;;;;;19.23;11.20;;;;;;;8.39;75.16;98337.78;4892033;29;20415;-93
2022/11/18 06:41:29;;;;;;;25.00;14.45;;;;;;;8.53;74.60;98340.63;4881671;29;20028;-92
2022/11/18 06:43:54;;;;;;;22.02;13.13;;;;;;;8.70;74.55;98347.22;4886638;29;20701;-92
2022/11/18 06:49:04;;;;;;;15.05;8.43;;;;;;;8.77;75.17;98348.75;4894703;29;20048;-91
2022/11/18 06:51:29;;;;;;;21.85;8.80;;;;;;;8.84;75.08;98341.19;4891858;29;20028;-92
2022/11/18 06:53:58;;;;;;;12.27;8.20;;;;;;;8.81;75.49;98331.81;4895487;29;20135;-89
2022/11/18 06:56:23;;;;;;;12.30;7.72;;;;;;;8.75;75.46;98322.19;4885892;29;20105;-92
2022/11/18 06:58:56;;;;;;;16.27;7.80;;;;;;;8.95;74.97;98331.97;4896637;29;20032;-90
2022/11/18 07:01:45;;;;;;;18.25;9.32;;;;;;;9.00;74.85;98339.16;4878956;29;20376;-95
2022/11/18 07:04:11;;;;;;;13.65;7.97;;;;;;;9.15;74.82;98330.16;4893686;29;20040;-92
2022/11/18 07:06:37;;;;;;;174.15;40.03;;;;;;;9.19;74.85;98318.53;4902593;29;20025;-96
2022/11/18 07:09:05;;;;;;;95.32;22.58;;;;;;;9.35;74.92;98324.56;4909469;29;20044;-96
2022/11/18 07:11:30;;;;;;;25.48;18.85;;;;;;;9.37;73.82;98322.38;4897680;29;20488;-91
2022/11/18 07:13:55;;;;;;;14.90;9.25;;;;;;;9.50;73.59;98321.72;4912546;29;20031;-91
2022/11/18 07:16:22;;;;;;;12.65;7.53;;;;;;;9.61;73.36;98321.59;4891430;29;20060;-91
2022/11/18 07:18:48;;;;;;;12.43;7.07;;;;;;;9.81;73.35;98337.44;4880386;29;20663;-92
2022/11/18 07:21:24;;;;;;;11.45;6.57;;;;;;;10.04;72.36;98341.19;4894964;29;20144;-95
2022/11/18 07:23:50;;;;;;;15.68;7.55;;;;;;;10.03;72.36;98333.41;4878710;29;20410;-91
2022/11/18 07:26:15;;;;;;;32.30;20.90;;;;;;;10.18;72.13;98325.09;4868189;29;20028;-90
2022/11/18 07:28:41;;;;;;;12.82;7.72;;;;;;;10.31;72.08;98328.97;4877416;29;20028;-90
2022/11/18 07:31:09;;;;;;;17.17;10.50;;;;;;;10.40;71.49;98321.84;4881506;29;20555;-90
2022/11/18 07:33:34;;;;;;;13.55;8.32;;;;;;;10.66;70.51;98316.84;4880198;29;20504;-89
2022/11/18 07:36:04;;;;;;;12.15;7.38;;;;;;;10.90;69.93;98330.16;4866039;29;20039;-90
2022/11/18 07:38:32;;;;;;;15.38;9.52;;;;;;;11.03;68.66;98319.72;4864483;29;20036;-90
2022/11/18 07:41:12;;;;;;;9.38;6.00;;;;;;;11.29;67.81;98328.94;4864789;29;20025;-91
2022/11/18 07:43:39;;;;;;;8.38;5.18;;;;;;;11.32;68.05;98308.66;4849841;29;20107;-91
2022/11/18 07:46:19;;;;;;;16.10;8.55;;;;;;;11.50;68.50;98328.53;4872577;29;20024;-88
2022/11/18 07:48:46;;;;;;;11.80;7.95;;;;;;;11.44;68.49;98292.78;4892216;29;20021;-90
2022/11/18 07:51:12;;;;;;;15.13;6.57;;;;;;;11.60;68.17;98298.69;4864877;29;20066;-93
2022/11/18 07:53:38;;;;;;;7.90;5.25;;;;;;;11.73;67.54;98294.34;4879305;29;20088;-95
2022/11/18 08:01:15;;;;;;;15.30;7.07;;;;;;;12.24;66.76;98304.06;4903830;29;20064;-95
2022/11/18 08:03:42;;;;;;;24.35;15.77;;;;;;;12.18;66.66;98278.28;4889505;29;20040;-94
2022/11/18 08:06:12;;;;;;;16.38;9.45;;;;;;;12.30;66.04;98275.03;4908959;29;20502;-95
2022/11/18 08:08:37;;;;;;;14.65;6.00;;;;;;;12.45;65.16;98276.53;4873336;29;20033;-91
2022/11/18 08:11:05;;;;;;;7.22;4.00;;;;;;;12.52;64.28;98264.22;4864337;29;20093;-91
2022/11/18 08:13:31;;;;;;;8.52;5.20;;;;;;;12.72;64.29;98273.72;4854781;29;20087;-95
2022/11/18 08:15:57;;;;;;;7.75;3.95;;;;;;;12.83;63.70;98268.03;4879382;29;20067;-96
2022/11/18 08:19:18;;;;;;;9.25;6.00;;;;;;;13.10;63.58;98291.38;4862069;29;20036;-96
2022/11/18 08:21:44;;;;;;;11.30;5.00;;;;;;;13.05;63.32;98270.69;4902801;29;20119;-95
2022/11/18 08:24:09;;;;;;;6.00;3.90;;;;;;;13.14;63.33;98262.63;4856793;29;20062;-95
2022/11/18 08:26:39;;;;;;;8.15;4.65;;;;;;;13.25;63.01;98260.41;4856228;29;20069;-93
2022/11/18 08:29:05;;;;;;;45.60;25.17;;;;;;;13.37;63.14;98259.84;4897861;29;20033;-95
2022/11/18 08:31:31;;;;;;;13.10;6.90;;;;;;;13.52;62.85;98268.31;4852442;29;20050;-94
2022/11/18 08:34:00;;;;;;;12.50;4.28;;;;;;;13.62;63.00;98272.63;4863542;29;20120;-94
2022/11/18 08:36:40;;;;;;;5.35;3.00;;;;;;;13.69;62.44;98264.03;4858191;29;20032;-94
2022/11/18 08:39:10;;;;;;;6.82;4.82;;;;;;;13.72;62.44;98255.31;4904301;29;20396;-96
2022/11/18 08:41:44;;;;;;;8.10;4.93;;;;;;;13.82;62.50;98260.41;4904450;29;20039;-96
2022/11/18 08:44:13;;;;;;;9.68;5.28;;;;;;;13.95;62.35;98261.38;4891659;29;20100;-95
2022/11/18 08:46:44;;;;;;;13.48;8.25;;;;;;;14.01;62.42;98260.09;4892195;29;20040;-96
2022/11/18 08:49:14;;;;;;;;;;;;;;;14.25;62.01;98278.56;4876920;29;20093;-96
2022/11/18 08:51:45;;;;;;;11.77;5.90;;;;;;;14.24;61.76;98254.53;4899036;29;19968;-96
2022/11/18 08:54:11;;;;;;;13.32;6.03;;;;;;;14.31;62.32;98254.81;4854794;29;20059;-95
2022/11/18 08:56:38;;;;;;;5.57;3.72;;;;;;;14.43;61.72;98252.25;4870949;29;20043;-96
2022/11/18 08:59:04;;;;;;;4.55;3.30;;;;;;;14.43;60.84;98243.34;4854283;29;20526;-91
2022/11/18 09:01:31;;;;;;;7.45;4.38;;;;;;;14.52;60.84;98235.97;4865524;29;20357;-91
2022/11/18 09:03:58;;;;;;;10.27;5.65;;;;;;;14.70;60.78;98255.75;4848668;29;20112;-92
2022/11/18 09:06:23;;;;;;;9.20;4.57;;;;;;;14.70;60.66;98229.44;4852421;29;20036;-91
2022/11/18 09:08:49;;;;;;;10.73;4.50;;;;;;;14.95;60.58;98244.00;4871364;29;20079;-92
2022/11/18 09:11:16;;;;;;;7.05;4.97;;;;;;;14.98;59.68;98225.50;4880589;29;20032;-92
2022/11/18 09:13:48;;;;;;;7.15;3.78;;;;;;;15.10;59.41;98214.75;4865897;29;20092;-91
2022/11/18 09:16:13;;;;;;;7.55;5.15;;;;;;;15.23;59.34;98219.19;4865469;29;20064;-93
2022/11/18 09:18:42;;;;;;;5.63;3.60;;;;;;;15.29;59.07;98203.50;4874718;29;20075;-91
2022/11/18 09:21:10;;;;;;;5.05;2.88;;;;;;;15.43;58.45;98206.75;4844498;29;20068;-92
2022/11/18 09:23:39;;;;;;;5.32;3.22;;;;;;;15.39;58.87;98186.84;4850394;29;20032;-92
2022/11/18 09:26:09;;;;;;;4.75;3.20;;;;;;;15.59;58.66;98198.06;4869200;29;20068;-92
2022/11/18 09:28:35;;;;;;;9.70;4.20;;;;;;;15.60;57.97;98183.34;4853448;29;20025;-92
2022/11/18 09:31:14;;;;;;;10.77;4.00;;;;;;;15.66;58.11;98171.97;4853290;29;20032;-90
2022/11/18 09:33:40;;;;;;;5.40;3.17;;;;;;;15.74;57.61;98170.34;4868438;29;20039;-91
2022/11/18 09:36:20;;;;;;;5.53;3.78;;;;;;;15.80;58.00;98165.50;4862784;29;20036;-90
2022/11/18 09:38:46;;;;;;;7.22;4.63;;;;;;;15.84;57.81;98155.56;4864221;29;20039;-93
2022/11/18 09:41:42;;;;;;;6.35;2.80;;;;;;;16.04;57.28;98175.66;4859926;29;20040;-95
2022/11/18 09:44:22;;;;;;;5.95;2.97;;;;;;;16.16;57.31;98164.84;4891925;29;20033;-94
2022/11/18 09:47:14;;;;;;;8.35;3.63;;;;;;;16.22;57.67;98154.56;4888680;29;20056;-96
2022/11/18 09:50:04;;;;;;;4.68;2.92;;;;;;;16.26;57.81;98147.34;4892413;29;20025;-96
2022/11/18 09:53:05;;;;;;;8.35;3.25;;;;;;;16.33;58.05;98142.94;4886463;29;20550;-94
2022/11/18 09:55:31;;;;;;;16.52;6.75;;;;;;;16.28;58.08;98124.13;4902745;29;20115;-94
2022/11/18 09:57:57;;;;;;;11.65;4.95;;;;;;;16.40;56.25;98114.44;4868711;29;20060;-93
2022/11/18 10:00:24;;;;;;;10.27;4.40;;;;;;;16.60;56.54;98127.13;4899496;29;20052;-93
2022/11/18 10:02:49;;;;;;;7.43;3.70;;;;;;;16.75;55.48;98133.81;4873957;29;20083;-94
2022/11/18 10:05:18;;;;;;;14.23;4.55;;;;;;;16.69;55.25;98108.00;4894986;29;20024;-95
2022/11/18 10:08:08;;;;;;;2.90;1.92;;;;;;;16.92;53.68;98119.22;4864309;29;20025;-95
2022/11/18 10:10:59;;;;;;;4.57;2.20;;;;;;;17.04;53.05;98115.72;4899435;29;20033;-96
2022/11/18 10:13:33;;;;;;;4.60;2.65;;;;;;;17.11;53.48;98110.47;4891548;29;20028;-96
2022/11/18 10:16:41;;;;;;;7.20;3.75;;;;;;;17.02;53.21;98082.63;4907080;29;20056;-95
2022/11/18 10:19:41;;;;;;;3.00;1.90;;;;;;;17.17;49.58;98085.41;4903526;29;20084;-96
2022/11/18 10:22:38;;;;;;;2.67;1.60;;;;;;;17.43;49.98;98092.38;4890512;29;20048;-96
2022/11/18 10:25:10;;;;;;;3.10;1.67;;;;;;;17.53;50.02;98078.25;4886976;29;20036;-92
2022/11/18 10:27:37;;;;;;;;;;;;;;;17.64;50.30;98085.94;4855198;29;20059;-91
2022/11/18 10:30:10;;;;;;;4.35;2.30;;;;;;;17.64;50.28;98077.75;4882050;29;19918;-92
2022/11/18 10:32:54;;;;;;;3.58;1.98;;;;;;;17.62;49.95;98052.81;4862426;29;20515;-93
2022/11/18 10:36:10;;;;;;;6.88;2.35;;;;;;;17.73;49.61;98057.41;4862029;29;20061;-92
2022/11/18 10:38:36;;;;;;;3.58;2.38;;;;;;;17.61;49.33;98024.03;4840493;29;20052;-92
2022/11/18 10:41:06;;;;;;;8.68;3.85;;;;;;;17.86;49.10;98044.56;4826433;29;20033;-92
2022/11/18 10:44:06;;;;;;;9.80;3.97;;;;;;;17.82;49.00;98027.31;4854569;29;20045;-94
2022/11/18 10:46:38;;;;;;;4.07;2.40;;;;;;;17.75;48.66;98016.25;4818677;29;20056;-92
2022/11/18 10:49:09;;;;;;;5.13;2.40;;;;;;;17.97;48.29;98036.66;4837267;29;20050;-90
2022/11/18 10:51:38;;;;;;;5.55;2.03;;;;;;;17.86;48.52;98008.38;4840455;29;20041;-91
2022/11/18 10:54:10;;;;;;;12.38;3.50;;;;;;;17.97;47.75;98029.31;4833719;29;20049;-90
2022/11/18 10:56:59;;;;;;;11.48;4.70;;;;;;;18.11;47.19;98034.28;4852061;29;20496;-90
2022/11/18 10:59:33;;;;;;;4.07;2.40;;;;;;;18.03;47.85;98012.69;4836358;29;20126;-91
2022/11/18 11:02:29;;;;;;;2.78;1.70;;;;;;;18.09;46.89;98014.00;4852235;29;20040;-94
2022/11/18 11:04:56;;;;;;;2.88;2.33;;;;;;;18.16;47.16;98011.47;4853721;29;20068;-93
2022/11/18 11:07:37;;;;;;;2.03;1.40;;;;;;;18.20;46.02;97996.00;4853560;29;20094;-95
2022/11/18 11:10:03;;;;;;;2.10;1.75;;;;;;;18.36;46.83;98012.31;4849353;29;20033;-92
2022/11/18 11:12:45;;;;;;;3.00;2.17;;;;;;;18.26;46.17;97983.69;4889846;29;20124;-94
2022/11/18 11:15:44;;;;;;;3.08;1.58;;;;;;;18.49;46.67;97996.63;4871371;29;20090;-96
2022/11/18 11:19:14;;;;;;;5.35;2.10;;;;;;;18.54;46.96;98007.28;4902706;29;20018;-96
2022/11/18 11:28:39;;;;;;;8.43;2.90;;;;;;;18.74;45.06;97984.38;4829781;29;20053;-96
2022/11/18 11:31:23;;;;;;;5.25;2.88;;;;;;;18.81;44.86;97978.31;4837244;29;20787;-94
2022/11/18 11:34:10;;;;;;;5.43;2.05;;;;;;;18.77;44.73;97972.75;4860093;29;20036;-95
2022/11/18 11:37:16;;;;;;;6.55;2.05;;;;;;;18.91;44.36;97961.38;4839732;29;20079;-96
2022/11/18 11:39:53;;;;;;;2.30;1.27;;;;;;;18.98;44.08;97958.00;4829268;29;20041;-96
2022/11/18 11:42:44;;;;;;;;;;;;;;;;;;;;;
2022/11/18 11:45:39;;;;;;;5.05;2.65;;;;;;;19.25;45.07;97972.56;4856660;29;20037;-94
2022/11/18 11:48:22;;;;;;;5.60;2.03;;;;;;;19.29;45.72;97965.22;4854297;29;20033;-95
2022/11/18 11:51:05;;;;;;;3.40;1.80;;;;;;;19.27;45.54;97967.53;4854027;29;20041;-95
2022/11/18 11:54:07;;;;;;;9.18;3.05;;;;;;;19.31;45.71;97960.19;4835616;29;20041;-93
2022/11/18 11:56:58;;;;;;;5.30;2.40;;;;;;;19.46;45.01;97969.44;4833747;29;20038;-96
2022/11/18 11:59:54;;;;;;;;;;;;;;;;;;;;;
2022/11/18 12:03:10;;;;;;;26.08;21.25;;;;;;;19.54;44.23;97962.19;4833386;29;20149;-95
2022/11/18 12:05:41;;;;;;;9.25;5.22;;;;;;;19.62;43.78;97954.91;4810597;29;20128;-96
2022/11/18 12:08:26;;;;;;;8.85;2.33;;;;;;;19.66;43.70;97962.00;4812284;29;20038;-96
2022/11/18 12:11:26;;;;;;;6.30;3.53;;;;;;;19.89;43.05;97969.44;4823101;29;20048;-96
2022/11/18 12:14:03;;;;;;;6.63;1.70;;;;;;;19.59;43.36;97938.09;4876261;29;20520;-96
2022/11/18 12:16:55;;;;;;;3.13;1.55;;;;;;;19.56;44.11;97940.75;4847960;29;20559;-94
2022/11/18 12:19:22;;;;;;;4.13;2.08;;;;;;;19.68;44.45;97945.28;4864821;29;20037;-95
2022/11/18 12:22:04;;;;;;;9.18;3.45;;;;;;;19.71;43.95;97953.53;4871537;29;20048;-96
2022/11/18 12:24:36;;;;;;;9.90;5.72;;;;;;;19.67;43.59;97941.75;4841741;29;20060;-95